sensor_id;sensor_type;location;lat;lon;timestamp;pressure;altitude;pressure_sealevel;temperature;humidity
62544;BME280;48597;49.030;1.822;2023-06-22T00:01:47;100932.34;;;25.73;46.98
62544;BME280;48597;49.030;1.822;2023-06-22T00:04:13;100933.63;;;25.72;47.07
62544;BME280;48597;49.030;1.822;2023-06-22T00:06:38;100930.75;;;25.72;46.80
62544;BME280;48597;49.030;1.822;2023-06-22T00:09:03;100929.94;;;25.72;46.80
62544;BME280;48597;49.030;1.822;2023-06-22T00:11:29;100932.53;;;25.70;46.89
62544;BME280;48597;49.030;1.822;2023-06-22T00:13:56;100931.75;;;25.69;46.97
62544;BME280;48597;49.030;1.822;2023-06-22T00:16:22;100937.50;;;25.69;46.67
62544;BME280;48597;49.030;1.822;2023-06-22T00:18:47;100946.19;;;25.69;46.87
62544;BME280;48597;49.030;1.822;2023-06-22T00:21:14;100953.25;;;25.68;46.63
62544;BME280;48597;49.030;1.822;2023-06-22T00:23:39;100954.53;;;25.67;46.66
62544;BME280;48597;49.030;1.822;2023-06-22T00:26:04;100951.16;;;25.69;46.69
62544;BME280;48597;49.030;1.822;2023-06-22T00:28:30;100945.88;;;25.67;46.63
62544;BME280;48597;49.030;1.822;2023-06-22T00:30:55;100937.19;;;25.67;46.69
62544;BME280;48597;49.030;1.822;2023-06-22T00:33:21;100936.41;;;25.67;46.54
62544;BME280;48597;49.030;1.822;2023-06-22T00:35:46;100925.34;;;25.65;46.65
62544;BME280;48597;49.030;1.822;2023-06-22T00:38:11;100929.81;;;25.66;46.55
62544;BME280;48597;49.030;1.822;2023-06-22T00:40:37;100928.22;;;25.65;46.57
62544;BME280;48597;49.030;1.822;2023-06-22T00:43:03;100934.00;;;25.65;46.71
62544;BME280;48597;49.030;1.822;2023-06-22T00:45:29;100921.66;;;25.65;46.64
62544;BME280;48597;49.030;1.822;2023-06-22T00:47:58;100916.69;;;25.65;46.48
62544;BME280;48597;49.030;1.822;2023-06-22T00:50:26;100913.78;;;25.65;46.60
62544;BME280;48597;49.030;1.822;2023-06-22T00:52:54;100906.41;;;25.64;46.72
62544;BME280;48597;49.030;1.822;2023-06-22T00:55:22;100900.66;;;25.64;46.57
62544;BME280;48597;49.030;1.822;2023-06-22T00:57:48;100893.28;;;25.63;46.49
62544;BME280;48597;49.030;1.822;2023-06-22T01:00:15;100885.91;;;25.62;46.77
62544;BME280;48597;49.030;1.822;2023-06-22T01:02:45;100887.66;;;25.59;46.57
62544;BME280;48597;49.030;1.822;2023-06-22T01:05:14;100888.44;;;25.60;46.64
62544;BME280;48597;49.030;1.822;2023-06-22T01:13:35;100899.19;;;25.59;46.34
62544;BME280;48597;49.030;1.822;2023-06-22T01:18:35;100888.44;;;25.60;46.45
62544;BME280;48597;49.030;1.822;2023-06-22T01:21:05;100876.09;;;25.59;46.59
62544;BME280;48597;49.030;1.822;2023-06-22T01:23:58;100881.06;;;25.59;46.56
62544;BME280;48597;49.030;1.822;2023-06-22T01:28:55;100879.47;;;25.58;46.34
62544;BME280;48597;49.030;1.822;2023-06-22T01:31:23;100872.94;;;25.57;46.28
62544;BME280;48597;49.030;1.822;2023-06-22T01:33:51;100869.25;;;25.57;46.55
62544;BME280;48597;49.030;1.822;2023-06-22T01:36:19;100857.69;;;25.57;46.22
62544;BME280;48597;49.030;1.822;2023-06-22T01:38:45;100862.66;;;25.56;46.46
62544;BME280;48597;49.030;1.822;2023-06-22T01:41:12;100872.13;;;25.57;46.19
62544;BME280;48597;49.030;1.822;2023-06-22T01:43:38;100871.34;;;25.56;46.17
62544;BME280;48597;49.030;1.822;2023-06-22T01:46:04;100864.28;;;25.57;46.42
62544;BME280;48597;49.030;1.822;2023-06-22T01:48:31;100864.75;;;25.56;46.24
62544;BME280;48597;49.030;1.822;2023-06-22T01:50:57;100859.00;;;25.56;46.13
62544;BME280;48597;49.030;1.822;2023-06-22T01:53:23;100851.63;;;25.55;46.21
62544;BME280;48597;49.030;1.822;2023-06-22T01:55:48;100848.72;;;25.55;46.20
62544;BME280;48597;49.030;1.822;2023-06-22T01:58:14;100839.28;;;25.54;46.17
62544;BME280;48597;49.030;1.822;2023-06-22T02:00:53;100832.69;;;25.54;46.12
62544;BME280;48597;49.030;1.822;2023-06-22T02:03:30;100837.66;;;25.53;46.23
62544;BME280;48597;49.030;1.822;2023-06-22T02:06:03;100828.22;;;25.53;46.04
62544;BME280;48597;49.030;1.822;2023-06-22T02:08:31;100821.63;;;25.52;46.06
62544;BME280;48597;49.030;1.822;2023-06-22T02:10:57;100822.94;;;25.51;46.09
62544;BME280;48597;49.030;1.822;2023-06-22T02:13:25;100824.53;;;25.52;46.07
62544;BME280;48597;49.030;1.822;2023-06-22T02:15:51;100824.53;;;25.52;45.90
62544;BME280;48597;49.030;1.822;2023-06-22T02:18:16;100827.09;;;25.50;45.95
62544;BME280;48597;49.030;1.822;2023-06-22T02:20:42;100833.66;;;25.51;46.16
62544;BME280;48597;49.030;1.822;2023-06-22T02:23:08;100827.09;;;25.50;46.08
62544;BME280;48597;49.030;1.822;2023-06-22T02:25:34;100836.56;;;25.51;46.00
62544;BME280;48597;49.030;1.822;2023-06-22T02:28:00;100836.25;;;25.49;46.02
62544;BME280;48597;49.030;1.822;2023-06-22T02:30:26;100829.19;;;25.50;45.74
62544;BME280;48597;49.030;1.822;2023-06-22T02:32:51;100833.38;;;25.49;46.18
62544;BME280;48597;49.030;1.822;2023-06-22T02:35:28;100841.22;;;25.48;45.94
62544;BME280;48597;49.030;1.822;2023-06-22T02:38:01;100846.19;;;25.48;45.94
62544;BME280;48597;49.030;1.822;2023-06-22T02:40:27;100861.41;;;25.48;45.74
62544;BME280;48597;49.030;1.822;2023-06-22T02:42:54;100856.13;;;25.47;45.97
62544;BME280;48597;49.030;1.822;2023-06-22T02:45:20;100859.03;;;25.47;45.76
62544;BME280;48597;49.030;1.822;2023-06-22T02:47:45;100861.13;;;25.46;45.95
62544;BME280;48597;49.030;1.822;2023-06-22T02:50:13;100854.53;;;25.46;45.69
62544;BME280;48597;49.030;1.822;2023-06-22T02:52:38;100853.75;;;25.45;45.63
62544;BME280;48597;49.030;1.822;2023-06-22T02:55:05;100840.09;;;25.46;45.75
62544;BME280;48597;49.030;1.822;2023-06-22T02:57:30;100829.84;;;25.45;45.59
62544;BME280;48597;49.030;1.822;2023-06-22T02:59:56;100836.41;;;25.45;45.77
62544;BME280;48597;49.030;1.822;2023-06-22T03:02:21;100839.81;;;25.44;45.66
62544;BME280;48597;49.030;1.822;2023-06-22T03:04:47;100838.22;;;25.43;45.58
62544;BME280;48597;49.030;1.822;2023-06-22T03:07:21;100835.34;;;25.43;45.67
62544;BME280;48597;49.030;1.822;2023-06-22T03:09:47;100839.03;;;25.43;45.58
62544;BME280;48597;49.030;1.822;2023-06-22T03:12:12;100819.31;;;25.42;45.53
62544;BME280;48597;49.030;1.822;2023-06-22T03:14:37;100825.88;;;25.42;45.54
62544;BME280;48597;49.030;1.822;2023-06-22T03:17:04;100816.44;;;25.42;45.70
62544;BME280;48597;49.030;1.822;2023-06-22T03:19:30;100814.84;;;25.41;45.49
62544;BME280;48597;49.030;1.822;2023-06-22T03:21:57;100804.88;;;25.42;45.70
62544;BME280;48597;49.030;1.822;2023-06-22T03:24:23;100807.78;;;25.42;45.60
62544;BME280;48597;49.030;1.822;2023-06-22T03:26:48;100796.72;;;25.40;45.56
62544;BME280;48597;49.030;1.822;2023-06-22T03:29:13;100794.63;;;25.41;45.50
62544;BME280;48597;49.030;1.822;2023-06-22T03:31:39;100798.81;;;25.40;45.61
62544;BME280;48597;49.030;1.822;2023-06-22T03:34:04;100787.25;;;25.40;45.49
62544;BME280;48597;49.030;1.822;2023-06-22T03:36:30;100786.47;;;25.39;45.53
62544;BME280;48597;49.030;1.822;2023-06-22T03:38:55;100789.03;;;25.37;45.44
62544;BME280;48597;49.030;1.822;2023-06-22T03:41:21;100781.19;;;25.38;45.59
62544;BME280;48597;49.030;1.822;2023-06-22T03:43:46;100786.16;;;25.37;45.51
62544;BME280;48597;49.030;1.822;2023-06-22T03:46:11;100789.03;;;25.37;45.64
62544;BME280;48597;49.030;1.822;2023-06-22T03:48:37;100781.19;;;25.38;45.62
62544;BME280;48597;49.030;1.822;2023-06-22T03:51:03;100776.69;;;25.37;45.56
62544;BME280;48597;49.030;1.822;2023-06-22T03:53:29;100782.47;;;25.37;45.56
62544;BME280;48597;49.030;1.822;2023-06-22T03:55:55;100787.44;;;25.36;45.41
62544;BME280;48597;49.030;1.822;2023-06-22T03:58:21;100782.47;;;25.37;45.51
62544;BME280;48597;49.030;1.822;2023-06-22T04:00:47;100788.25;;;25.37;45.37
62544;BME280;48597;49.030;1.822;2023-06-22T04:03:16;100795.28;;;25.36;45.30
62544;BME280;48597;49.030;1.822;2023-06-22T04:05:44;100794.50;;;25.35;45.27
62544;BME280;48597;49.030;1.822;2023-06-22T04:08:14;100792.91;;;25.34;45.22
62544;BME280;48597;49.030;1.822;2023-06-22T04:10:40;100808.13;;;25.35;45.24
62544;BME280;48597;49.030;1.822;2023-06-22T04:13:05;100803.63;;;25.34;45.52
62544;BME280;48597;49.030;1.822;2023-06-22T04:15:30;100797.88;;;25.34;45.52
62544;BME280;48597;49.030;1.822;2023-06-22T04:17:56;100801.56;;;25.34;45.18
62544;BME280;48597;49.030;1.822;2023-06-22T04:20:22;100799.16;;;25.33;45.27
62544;BME280;48597;49.030;1.822;2023-06-22T04:22:47;100799.16;;;25.33;45.38
62544;BME280;48597;49.030;1.822;2023-06-22T04:25:12;100799.16;;;25.33;45.38
62544;BME280;48597;49.030;1.822;2023-06-22T04:27:38;100801.25;;;25.32;45.22
62544;BME280;48597;49.030;1.822;2023-06-22T04:30:06;100796.28;;;25.33;45.47
62544;BME280;48597;49.030;1.822;2023-06-22T04:32:32;100800.47;;;25.32;45.28
62544;BME280;48597;49.030;1.822;2023-06-22T04:34:58;100793.09;;;25.31;45.20
62544;BME280;48597;49.030;1.822;2023-06-22T04:37:25;100790.22;;;25.31;45.36
62544;BME280;48597;49.030;1.822;2023-06-22T04:39:50;100786.53;;;25.30;45.28
62544;BME280;48597;49.030;1.822;2023-06-22T04:42:16;100793.09;;;25.31;45.64
62544;BME280;48597;49.030;1.822;2023-06-22T04:44:41;100791.50;;;25.30;45.22
62544;BME280;48597;49.030;1.822;2023-06-22T04:47:07;100778.69;;;25.31;45.51
62544;BME280;48597;49.030;1.822;2023-06-22T04:49:34;100778.69;;;25.31;45.36
62544;BME280;48597;49.030;1.822;2023-06-22T04:52:04;100769.72;;;25.28;45.23
62544;BME280;48597;49.030;1.822;2023-06-22T04:54:30;100769.22;;;25.30;45.40
62544;BME280;48597;49.030;1.822;2023-06-22T04:57:01;100772.09;;;25.30;45.59
62544;BME280;48597;49.030;1.822;2023-06-22T04:59:28;100760.56;;;25.30;45.47
62544;BME280;48597;49.030;1.822;2023-06-22T05:01:59;100757.38;;;25.28;45.54
62544;BME280;48597;49.030;1.822;2023-06-22T05:04:25;100754.50;;;25.28;45.46
62544;BME280;48597;49.030;1.822;2023-06-22T05:06:52;100754.50;;;25.28;45.37
62544;BME280;48597;49.030;1.822;2023-06-22T05:09:18;100750.81;;;25.27;45.43
62544;BME280;48597;49.030;1.822;2023-06-22T05:11:44;100754.50;;;25.28;45.48
62544;BME280;48597;49.030;1.822;2023-06-22T05:14:09;100750.00;;;25.27;45.50
62544;BME280;48597;49.030;1.822;2023-06-22T05:16:36;100752.09;;;25.26;45.71
62544;BME280;48597;49.030;1.822;2023-06-22T05:19:01;100747.91;;;25.27;45.78
62544;BME280;48597;49.030;1.822;2023-06-22T05:21:29;100750.50;;;25.25;45.72
62544;BME280;48597;49.030;1.822;2023-06-22T05:23:55;100748.41;;;25.26;45.60
62544;BME280;48597;49.030;1.822;2023-06-22T05:26:25;100748.41;;;25.26;45.47
62544;BME280;48597;49.030;1.822;2023-06-22T05:28:50;100753.38;;;25.25;45.70
62544;BME280;48597;49.030;1.822;2023-06-22T05:31:16;100747.59;;;25.25;45.60
62544;BME280;48597;49.030;1.822;2023-06-22T05:33:43;100748.41;;;25.26;45.57
62544;BME280;48597;49.030;1.822;2023-06-22T05:36:09;100743.91;;;25.25;45.25
62544;BME280;48597;49.030;1.822;2023-06-22T05:38:36;100740.25;;;25.24;45.60
62544;BME280;48597;49.030;1.822;2023-06-22T05:41:01;100742.31;;;25.24;45.34
62544;BME280;48597;49.030;1.822;2023-06-22T05:43:27;100744.41;;;25.23;45.48
62544;BME280;48597;49.030;1.822;2023-06-22T05:45:52;100753.06;;;25.23;45.69
62544;BME280;48597;49.030;1.822;2023-06-22T05:48:18;100745.22;;;25.24;45.57
62544;BME280;48597;49.030;1.822;2023-06-22T05:50:43;100753.06;;;25.23;45.42
62544;BME280;48597;49.030;1.822;2023-06-22T05:53:08;100753.88;;;25.24;45.61
62544;BME280;48597;49.030;1.822;2023-06-22T05:55:34;100756.75;;;25.24;45.72
62544;BME280;48597;49.030;1.822;2023-06-22T05:57:59;100748.59;;;25.22;45.65
62544;BME280;48597;49.030;1.822;2023-06-22T06:00:25;100753.06;;;25.23;45.68
62544;BME280;48597;49.030;1.822;2023-06-22T06:02:50;100748.59;;;25.22;45.75
62544;BME280;48597;49.030;1.822;2023-06-22T06:05:15;100750.19;;;25.23;45.89
62544;BME280;48597;49.030;1.822;2023-06-22T06:07:42;100758.84;;;25.23;45.76
62544;BME280;48597;49.030;1.822;2023-06-22T06:10:07;100755.94;;;25.23;45.85
62544;BME280;48597;49.030;1.822;2023-06-22T06:12:33;100755.16;;;25.23;46.03
62544;BME280;48597;49.030;1.822;2023-06-22T06:14:58;100760.94;;;25.23;45.98
62544;BME280;48597;49.030;1.822;2023-06-22T06:17:24;100763.81;;;25.23;45.80
62544;BME280;48597;49.030;1.822;2023-06-22T06:19:49;100760.13;;;25.22;46.16
62544;BME280;48597;49.030;1.822;2023-06-22T06:22:14;100762.22;;;25.22;46.09
62544;BME280;48597;49.030;1.822;2023-06-22T06:24:40;100765.09;;;25.22;46.02
62544;BME280;48597;49.030;1.822;2023-06-22T06:27:05;100770.88;;;25.22;46.06
62544;BME280;48597;49.030;1.822;2023-06-22T06:29:31;100764.28;;;25.21;46.21
62544;BME280;48597;49.030;1.822;2023-06-22T06:31:57;100767.19;;;25.21;46.17
62544;BME280;48597;49.030;1.822;2023-06-22T06:34:22;100775.03;;;25.21;46.05
62544;BME280;48597;49.030;1.822;2023-06-22T06:36:48;100770.06;;;25.21;46.23
62544;BME280;48597;49.030;1.822;2023-06-22T06:39:13;100775.03;;;25.21;46.32
62544;BME280;48597;49.030;1.822;2023-06-22T06:41:38;100772.16;;;25.21;46.10
62544;BME280;48597;49.030;1.822;2023-06-22T06:44:04;100773.44;;;25.20;46.45
62544;BME280;48597;49.030;1.822;2023-06-22T06:46:29;100787.38;;;25.21;46.51
62544;BME280;48597;49.030;1.822;2023-06-22T06:48:55;100783.69;;;25.21;46.47
62544;BME280;48597;49.030;1.822;2023-06-22T06:51:20;100784.19;;;25.19;46.38
62544;BME280;48597;49.030;1.822;2023-06-22T06:53:45;100785.78;;;25.20;46.34
62544;BME280;48597;49.030;1.822;2023-06-22T06:56:11;100785.78;;;25.20;46.34
62544;BME280;48597;49.030;1.822;2023-06-22T06:58:36;100793.63;;;25.20;46.49
62544;BME280;48597;49.030;1.822;2023-06-22T07:01:02;100790.75;;;25.20;46.56
62544;BME280;48597;49.030;1.822;2023-06-22T07:03:28;100794.44;;;25.20;46.52
62544;BME280;48597;49.030;1.822;2023-06-22T07:05:53;100794.44;;;25.20;46.63
62544;BME280;48597;49.030;1.822;2023-06-22T07:08:19;100796.50;;;25.20;46.73
62544;BME280;48597;49.030;1.822;2023-06-22T07:10:44;100802.28;;;25.20;46.50
62544;BME280;48597;49.030;1.822;2023-06-22T07:13:10;100803.09;;;25.20;46.70
62544;BME280;48597;49.030;1.822;2023-06-22T07:15:35;100802.28;;;25.20;46.60
62544;BME280;48597;49.030;1.822;2023-06-22T07:18:00;100805.97;;;25.20;46.81
62544;BME280;48597;49.030;1.822;2023-06-22T07:20:26;100801.47;;;25.19;46.77
62544;BME280;48597;49.030;1.822;2023-06-22T07:22:51;100797.31;;;25.20;46.85
62544;BME280;48597;49.030;1.822;2023-06-22T07:25:17;100800.19;;;25.20;46.73
62544;BME280;48597;49.030;1.822;2023-06-22T07:27:45;100808.84;;;25.20;46.83
62544;BME280;48597;49.030;1.822;2023-06-22T07:30:12;100805.16;;;25.20;46.78
62544;BME280;48597;49.030;1.822;2023-06-22T07:32:37;100808.06;;;25.20;46.96
62544;BME280;48597;49.030;1.822;2023-06-22T07:35:03;100804.38;;;25.19;46.99
62544;BME280;48597;49.030;1.822;2023-06-22T07:37:29;100808.06;;;25.20;46.95
62544;BME280;48597;49.030;1.822;2023-06-22T07:39:55;100815.91;;;25.19;47.03
62544;BME280;48597;49.030;1.822;2023-06-22T07:42:27;100810.13;;;25.19;46.88
62544;BME280;48597;49.030;1.822;2023-06-22T07:44:53;100811.75;;;25.20;47.01
62544;BME280;48597;49.030;1.822;2023-06-22T07:47:19;100808.06;;;25.20;47.17
62544;BME280;48597;49.030;1.822;2023-06-22T07:49:46;100815.91;;;25.19;46.94
62544;BME280;48597;49.030;1.822;2023-06-22T07:52:11;100812.22;;;25.19;46.90
62544;BME280;48597;49.030;1.822;2023-06-22T07:54:37;100815.91;;;25.19;46.96
62544;BME280;48597;49.030;1.822;2023-06-22T07:57:02;100816.72;;;25.20;47.26
62544;BME280;48597;49.030;1.822;2023-06-22T07:59:28;100816.72;;;25.20;46.94
62544;BME280;48597;49.030;1.822;2023-06-22T08:01:54;100813.03;;;25.19;47.28
62544;BME280;48597;49.030;1.822;2023-06-22T08:04:20;100825.38;;;25.20;47.23
62544;BME280;48597;49.030;1.822;2023-06-22T08:06:45;100819.59;;;25.20;47.26
62544;BME280;48597;49.030;1.822;2023-06-22T08:09:11;100819.59;;;25.20;47.15
62544;BME280;48597;49.030;1.822;2023-06-22T08:11:37;100824.56;;;25.19;47.15
62544;BME280;48597;49.030;1.822;2023-06-22T08:14:02;100823.75;;;25.19;47.24
62544;BME280;48597;49.030;1.822;2023-06-22T08:16:28;100820.13;;;25.18;47.17
62544;BME280;48597;49.030;1.822;2023-06-22T08:18:53;100817.22;;;25.18;47.10
62544;BME280;48597;49.030;1.822;2023-06-22T08:21:18;100823.75;;;25.19;47.16
62544;BME280;48597;49.030;1.822;2023-06-22T08:23:44;100815.09;;;25.19;47.26
62544;BME280;48597;49.030;1.822;2023-06-22T08:26:09;100825.88;;;25.18;47.38
62544;BME280;48597;49.030;1.822;2023-06-22T08:28:34;100822.19;;;25.18;47.24
62544;BME280;48597;49.030;1.822;2023-06-22T08:31:01;100826.66;;;25.19;47.27
62544;BME280;48597;49.030;1.822;2023-06-22T08:33:27;100841.06;;;25.19;47.40
62544;BME280;48597;49.030;1.822;2023-06-22T08:35:54;100839.78;;;25.20;47.41
62544;BME280;48597;49.030;1.822;2023-06-22T08:38:20;100841.88;;;25.19;47.34
62544;BME280;48597;49.030;1.822;2023-06-22T08:40:45;100844.75;;;25.19;47.35
62544;BME280;48597;49.030;1.822;2023-06-22T08:43:11;100831.66;;;25.18;47.40
62544;BME280;48597;49.030;1.822;2023-06-22T08:45:36;100846.84;;;25.19;47.43
62544;BME280;48597;49.030;1.822;2023-06-22T08:48:02;100848.16;;;25.18;47.37
62544;BME280;48597;49.030;1.822;2023-06-22T08:50:27;100846.06;;;25.18;47.40
62544;BME280;48597;49.030;1.822;2023-06-22T08:52:53;100837.91;;;25.17;47.35
62544;BME280;48597;49.030;1.822;2023-06-22T08:55:18;100837.41;;;25.18;47.34
62544;BME280;48597;49.030;1.822;2023-06-22T08:57:43;100843.19;;;25.18;47.29
62544;BME280;48597;49.030;1.822;2023-06-22T09:00:09;100840.31;;;25.18;47.22
62544;BME280;48597;49.030;1.822;2023-06-22T09:02:46;100834.53;;;25.18;47.64
62544;BME280;48597;49.030;1.822;2023-06-22T09:05:12;100840.78;;;25.17;47.64
62544;BME280;48597;49.030;1.822;2023-06-22T09:07:37;100846.06;;;25.18;47.49
62544;BME280;48597;49.030;1.822;2023-06-22T09:10:03;100833.72;;;25.18;47.50
62544;BME280;48597;49.030;1.822;2023-06-22T09:12:32;100843.19;;;25.18;47.56
62544;BME280;48597;49.030;1.822;2023-06-22T09:14:59;100830.84;;;25.18;47.37
62544;BME280;48597;49.030;1.822;2023-06-22T09:17:28;100827.16;;;25.17;47.49
62544;BME280;48597;49.030;1.822;2023-06-22T09:19:54;100822.19;;;25.18;47.45
62544;BME280;48597;49.030;1.822;2023-06-22T09:22:19;100825.06;;;25.18;47.71
62544;BME280;48597;49.030;1.822;2023-06-22T09:24:44;100826.38;;;25.17;47.54
62544;BME280;48597;49.030;1.822;2023-06-22T09:27:10;100827.16;;;25.17;47.58
62544;BME280;48597;49.030;1.822;2023-06-22T09:29:35;100830.84;;;25.18;47.65
62544;BME280;48597;49.030;1.822;2023-06-22T09:32:01;100827.16;;;25.17;47.65
62544;BME280;48597;49.030;1.822;2023-06-22T09:34:26;100834.53;;;25.18;47.57
62544;BME280;48597;49.030;1.822;2023-06-22T09:36:52;100832.94;;;25.17;47.56
62544;BME280;48597;49.030;1.822;2023-06-22T09:39:18;100832.13;;;25.17;47.79
62544;BME280;48597;49.030;1.822;2023-06-22T09:41:43;100830.84;;;25.18;47.83
62544;BME280;48597;49.030;1.822;2023-06-22T09:44:09;100832.94;;;25.17;47.60
62544;BME280;48597;49.030;1.822;2023-06-22T09:46:34;100829.25;;;25.17;47.73
62544;BME280;48597;49.030;1.822;2023-06-22T09:48:59;100841.59;;;25.17;47.66
62544;BME280;48597;49.030;1.822;2023-06-22T09:51:25;100830.06;;;25.17;47.82
62544;BME280;48597;49.030;1.822;2023-06-22T09:53:51;100830.84;;;25.18;47.89
62544;BME280;48597;49.030;1.822;2023-06-22T09:56:17;100838.69;;;25.17;47.93
62544;BME280;48597;49.030;1.822;2023-06-22T09:58:44;100829.25;;;25.17;47.76
62544;BME280;48597;49.030;1.822;2023-06-22T10:01:10;100832.13;;;25.17;47.83
62544;BME280;48597;49.030;1.822;2023-06-22T10:03:36;100843.66;;;25.17;47.75
62544;BME280;48597;49.030;1.822;2023-06-22T10:06:02;100834.22;;;25.16;47.86
62544;BME280;48597;49.030;1.822;2023-06-22T10:08:27;100844.47;;;25.17;47.93
62544;BME280;48597;49.030;1.822;2023-06-22T10:10:53;100844.47;;;25.17;47.81
62544;BME280;48597;49.030;1.822;2023-06-22T10:13:18;100842.38;;;25.18;48.05
62544;BME280;48597;49.030;1.822;2023-06-22T10:15:44;100841.59;;;25.17;48.01
62544;BME280;48597;49.030;1.822;2023-06-22T10:18:15;100840.00;;;25.16;48.01
62544;BME280;48597;49.030;1.822;2023-06-22T10:20:41;100836.31;;;25.16;47.90
62544;BME280;48597;49.030;1.822;2023-06-22T10:23:06;100847.84;;;25.16;48.02
62544;BME280;48597;49.030;1.822;2023-06-22T10:25:31;100840.78;;;25.17;48.13
62544;BME280;48597;49.030;1.822;2023-06-22T10:27:57;100843.66;;;25.17;48.32
62544;BME280;48597;49.030;1.822;2023-06-22T10:30:22;100834.22;;;25.16;47.97
62544;BME280;48597;49.030;1.822;2023-06-22T10:32:48;100840.00;;;25.16;48.07
62544;BME280;48597;49.030;1.822;2023-06-22T10:35:14;100844.47;;;25.17;47.88
62544;BME280;48597;49.030;1.822;2023-06-22T10:37:44;100849.94;;;25.15;48.09
62544;BME280;48597;49.030;1.822;2023-06-22T10:40:13;100846.56;;;25.17;47.92
62544;BME280;48597;49.030;1.822;2023-06-22T10:42:40;100846.56;;;25.17;48.12
62544;BME280;48597;49.030;1.822;2023-06-22T10:45:06;100850.25;;;25.17;48.14
62544;BME280;48597;49.030;1.822;2023-06-22T10:47:31;100853.13;;;25.17;48.15
62544;BME280;48597;49.030;1.822;2023-06-22T10:49:57;100858.91;;;25.17;48.37
62544;BME280;48597;49.030;1.822;2023-06-22T10:52:22;100858.91;;;25.17;48.23
62544;BME280;48597;49.030;1.822;2023-06-22T10:54:47;100863.06;;;25.16;48.29
62544;BME280;48597;49.030;1.822;2023-06-22T10:57:13;100858.09;;;25.17;48.32
62544;BME280;48597;49.030;1.822;2023-06-22T10:59:39;100859.69;;;25.18;48.51
62544;BME280;48597;49.030;1.822;2023-06-22T11:02:04;100862.56;;;25.18;48.20
62544;BME280;48597;49.030;1.822;2023-06-22T11:04:30;100858.91;;;25.17;48.61
62544;BME280;48597;49.030;1.822;2023-06-22T11:06:55;100883.25;;;25.16;48.30
62544;BME280;48597;49.030;1.822;2023-06-22T11:09:21;100876.19;;;25.17;48.39
62544;BME280;48597;49.030;1.822;2023-06-22T11:11:47;100879.88;;;25.18;48.52
62544;BME280;48597;49.030;1.822;2023-06-22T11:14:13;100891.44;;;25.18;48.35
62544;BME280;48597;49.030;1.822;2023-06-22T11:16:38;100890.63;;;25.17;48.58
62544;BME280;48597;49.030;1.822;2023-06-22T11:19:04;100898.00;;;25.18;48.48
62544;BME280;48597;49.030;1.822;2023-06-22T11:21:30;100895.88;;;25.19;48.33
62544;BME280;48597;49.030;1.822;2023-06-22T11:23:56;100898.00;;;25.18;48.55
62544;BME280;48597;49.030;1.822;2023-06-22T11:26:22;100898.00;;;25.18;48.75
62544;BME280;48597;49.030;1.822;2023-06-22T11:28:47;100891.44;;;25.18;48.48
62544;BME280;48597;49.030;1.822;2023-06-22T11:31:14;100898.75;;;25.19;48.50
62544;BME280;48597;49.030;1.822;2023-06-22T11:33:39;100908.22;;;25.19;48.45
62544;BME280;48597;49.030;1.822;2023-06-22T11:36:05;100901.16;;;25.20;48.64
62544;BME280;48597;49.030;1.822;2023-06-22T11:38:30;100898.28;;;25.20;48.67
62544;BME280;48597;49.030;1.822;2023-06-22T11:40:58;100904.84;;;25.21;48.80
62544;BME280;48597;49.030;1.822;2023-06-22T11:43:23;100908.53;;;25.21;48.66
62544;BME280;48597;49.030;1.822;2023-06-22T11:45:49;100899.88;;;25.21;48.55
62544;BME280;48597;49.030;1.822;2023-06-22T11:48:15;100902.75;;;25.21;48.87
62544;BME280;48597;49.030;1.822;2023-06-22T11:50:41;100893.31;;;25.21;48.64
62544;BME280;48597;49.030;1.822;2023-06-22T11:53:06;100903.56;;;25.22;48.84
62544;BME280;48597;49.030;1.822;2023-06-22T11:55:32;100907.25;;;25.22;48.82
62544;BME280;48597;49.030;1.822;2023-06-22T11:57:57;100904.38;;;25.22;48.74
62544;BME280;48597;49.030;1.822;2023-06-22T12:00:29;100898.59;;;25.22;49.19
62544;BME280;48597;49.030;1.822;2023-06-22T12:02:55;100900.19;;;25.23;49.20
62544;BME280;48597;49.030;1.822;2023-06-22T12:05:21;100906.78;;;25.24;49.43
62544;BME280;48597;49.030;1.822;2023-06-22T12:07:48;100901.78;;;25.24;49.42
62544;BME280;48597;49.030;1.822;2023-06-22T12:10:13;100908.38;;;25.25;49.32
62544;BME280;48597;49.030;1.822;2023-06-22T12:12:39;100904.19;;;25.26;49.36
62544;BME280;48597;49.030;1.822;2023-06-22T12:15:04;100903.41;;;25.25;49.46
62544;BME280;48597;49.030;1.822;2023-06-22T12:17:31;100907.09;;;25.26;49.44
62544;BME280;48597;49.030;1.822;2023-06-22T12:19:56;100898.44;;;25.26;49.33
62544;BME280;48597;49.030;1.822;2023-06-22T12:22:21;100899.22;;;25.26;49.39
62544;BME280;48597;49.030;1.822;2023-06-22T12:24:47;100899.22;;;25.26;49.34
62544;BME280;48597;49.030;1.822;2023-06-22T12:27:12;100907.88;;;25.26;49.26
62544;BME280;48597;49.030;1.822;2023-06-22T12:29:37;100900.84;;;25.27;49.19
62544;BME280;48597;49.030;1.822;2023-06-22T12:32:03;100903.22;;;25.29;49.23
62544;BME280;48597;49.030;1.822;2023-06-22T12:34:29;100903.22;;;25.29;49.34
62544;BME280;48597;49.030;1.822;2023-06-22T12:36:54;100897.47;;;25.29;49.39
62544;BME280;48597;49.030;1.822;2023-06-22T12:39:20;100904.03;;;25.30;49.06
62544;BME280;48597;49.030;1.822;2023-06-22T12:41:45;100901.16;;;25.30;49.32
62544;BME280;48597;49.030;1.822;2023-06-22T12:44:11;100906.44;;;25.31;49.19
62544;BME280;48597;49.030;1.822;2023-06-22T12:46:36;100914.28;;;25.31;49.15
62544;BME280;48597;49.030;1.822;2023-06-22T12:49:04;100924.53;;;25.32;49.28
62544;BME280;48597;49.030;1.822;2023-06-22T12:51:30;100931.09;;;25.32;49.20
62544;BME280;48597;49.030;1.822;2023-06-22T12:53:56;100917.47;;;25.33;49.51
62544;BME280;48597;49.030;1.822;2023-06-22T12:56:21;100921.13;;;25.33;49.35